Central Sierra Snow Lab Weather observations

Data are for 10 minute period ending at time listed.
 Day   Time    Incoming  Reflected   Ave.   Ave.    Ave.    Vector  Max.    Ave.    Total    Snow   
  of    of      Solar     Solar      Air    Rel.    Wind    Wind    Wind   Baro.   Precip.   Depth  
Year   Day     Radiation Radiation   Temp.  Humid.  Speed   Dir.    Gust   Press.                   
2019   (PST)    Kw/m2     Kw/m2       F       %      mph     deg.    mph     mb.     in.      in.   
----------------------------------------------------------------------------------------------------
 342   15:00    0.005     999.000     33.9     92     1.1     161     2.9   789.10   -2.96   165.10  
 342   15:10    0.004     999.000     34.6     92     0.8     181     2.5   789.20   -2.96   165.00  
 342   15:20    0.004     999.000     33.5     90     1.1     181     2.7   789.30   -2.96   165.00  
 342   15:30    0.003     999.000     33.5     90     0.2     171     1.4   789.40   -2.96   164.90  
 342   15:40    0.004     999.000     33.4     94     0.0       0     0.0   789.40   -2.96   160.90  
 342   15:50    0.003     999.000     33.4     96     0.4     195     2.0   789.40   -2.96   159.80  
 342   16:00    0.003     999.000     32.8     97     0.7     268     2.3   789.40   -2.96   138.40  
 342   16:10    0.002     999.000     32.7     98     0.2     228     1.2   789.40   -2.96   168.70  
 342   16:20    0.001     999.000     32.5     99     0.2      34     1.6   789.40   -2.96   156.60  
 342   16:30    0.001     999.000     32.3     99     0.9      60     2.5   789.40   -2.96   169.20  
 342   16:40    0.001     999.000     32.0    100     1.5      86     3.6   789.40   -2.96   170.60  
 342   16:50    0.000     999.000     31.8     99     1.2      66     2.9   789.40   -2.96   169.20  
 342   17:00    0.000     999.000     31.6    100     0.6      47     2.4   789.40   -2.96   173.30  
 342   17:10    0.000     999.000     31.5    100     0.9     132     3.1   789.50   -2.96   166.60  
 342   17:20    0.000     999.000     31.4    100     0.1     231     1.0   789.50   -2.96   169.20  
 342   17:30    0.000     999.000     31.2    100     0.0       0     0.0   789.50   -2.96   170.60  
 342   17:40    0.000     999.000     31.1    100     0.8     184     2.1   789.60   -2.96   170.60  
 342   17:50    0.000     999.000     31.0    100     0.3      24     1.5   789.60   -2.96   174.70  
 342   18:00    0.000     999.000     31.0    100     0.4     353     1.6   789.60   -2.96   170.70  
 342   18:10    0.000     999.000     30.9    100     0.0     320     1.2   789.70   -2.96   176.00  
 342   18:20    0.000     999.000     30.7    100     0.0       0     0.0   789.60   -2.96   173.10  
 342   18:30    0.000     999.000     30.6    100     1.2     239     2.9   789.70   -2.96   169.30  
 342   18:40    0.000     999.000     30.6    100     1.1     213     3.0   789.70   -2.96   169.20  
 342   18:50    0.000     999.000     30.3    100     1.9     266     3.8   789.80   -2.96   173.30  
 342   19:00    0.000     999.000     30.2    100     1.2     255     4.3   789.90   -2.96   157.30  
 342   19:10    0.000     999.000     30.3    100     0.7     148     3.6   790.00   -2.96   170.60  
 342   19:20    0.000     999.000     30.3    100     0.8     139     3.5   790.10   -2.96   165.20  
 342   19:30    0.000     999.000     30.2     99     1.3     170     3.4   790.20   -2.96   159.90  
 342   19:40    0.000     999.000     30.1     98     1.4     195     3.5   790.30   -2.96   174.60  
 342   19:50    0.000     999.000     30.0    100     1.1     193     4.4   790.40   -2.96   172.00  
 342   20:00    0.000     999.000     29.8    100     0.9     252     2.5   790.50   -2.96   169.30  
 342   20:10    0.000     999.000     29.9    100     0.9     188     2.2   790.60   -2.96   168.00  
 342   20:20    0.000     999.000     29.6    100     0.7      63     2.9   790.70   -2.96   174.70  
 342   20:30    0.000     999.000     29.6    100     0.5      87     1.9   790.80   -2.96   174.70  
 342   20:40    0.000     999.000     29.6    100     0.1     175     1.2   790.90   -2.96   174.70  
 342   20:50    0.000     999.000     29.6    100     0.5     254     2.0   791.10   -2.96   173.30  
 342   21:00    0.000     999.000     29.9    100     1.5     128     7.3   791.10   -2.96   163.50  
 342   21:10    0.000     999.000     30.3     97     1.8      79     6.2   791.00   -2.96   172.00  
 342   21:20    0.000     999.000     30.3     97     2.1      72     6.9   791.00   -2.96   174.70  
 342   21:30    0.000     999.000     30.3     96     2.7      71     7.4   791.10   -2.96   176.00  
 342   21:40    0.000     999.000     30.1     97     2.6      70     7.4   791.00   -2.96   176.00  
 342   21:50    0.000     999.000     29.9     98     2.8      52     9.7   791.10   -2.96   176.00  
 342   22:00    0.000     999.000     30.1     98     3.1      46     9.8   791.10   -2.96   174.70  
 342   22:10    0.000     999.000     30.0     96     3.1      57    11.6   791.10   -2.96   176.00  
 342   22:20    0.000     999.000     29.8     95     1.7      78     7.3   791.20   -2.96   173.30  
 342   22:30    0.000     999.000     29.5     98     2.1     112     5.8   791.20   -2.96   172.00  
 342   22:40    0.000     999.000     29.4     98     3.5      91     9.9   791.20   -2.96   176.00  
 342   22:50    0.000     999.000     29.4     98     3.6     116     7.3   791.40   -2.96   176.00  
 342   23:00    0.000     999.000     29.4     99     2.9     105     7.6   791.50   -2.96   176.00  
 342   23:10    0.000     999.000     29.5     98     3.4      86     7.9   791.50   -2.96   176.00  
 342   23:20    0.000     999.000     29.4     98     2.9      78     9.1   791.60   -2.96   176.00  
 342   23:30    0.000     999.000     29.4     98     3.3      98     9.6   791.70   -2.96   174.70  
 342   23:40    0.000     999.000     29.4     98     3.2     104    12.0   791.90   -2.96   176.00  
 342   23:50    0.000     999.000     29.2     98     2.5     142     5.0   791.90   -2.96   176.00  
 343    0:00    0.000     999.000     29.0     98     2.6     146     5.5   791.70   -2.96   174.70  
 343    0:10    0.000     999.000     28.9     98     2.6     127     7.9   791.60   -2.96   176.00  
 343    0:20    0.000     999.000     28.8     97     2.2     122     6.8   791.60   -2.96   172.00  
 343    0:30    0.000     999.000     28.8     95     3.4     164     8.6   791.60   -2.97   176.00  
 343    0:40    0.000     999.000     28.7     96     1.9     193     6.1   791.70   -2.96   174.70  
 343    0:50    0.000     999.000     28.5     99     1.5     208     4.2   791.80   -2.96   174.60  
 343    1:00    0.000     999.000     28.6     99     2.1     200     5.1   791.90   -2.96   176.00  
 343    1:10    0.000     999.000     28.6     99     2.3     177     5.4   791.90   -2.96   174.70  
 343    1:20    0.000     999.000     28.6    100     3.0     193     5.9   791.90   -2.96   176.00  
 343    1:30    0.000     999.000     28.4    100     1.4     178     3.4   792.00   -2.96   176.00  
 343    1:40    0.000     999.000     28.3    100     2.5     181     6.5   792.10   -2.96   176.00  
 343    1:50    0.000     999.000     28.4     99     1.0     199     2.6   792.00   -2.96   176.00  
 343    2:00    0.000     999.000     28.2     99     1.7     121     4.7   791.90   -2.96   173.30  
 343    2:10    0.000     999.000     28.0     95     2.4     160     7.7   791.90   -2.96   173.30  
 343    2:20    0.000     999.000     27.8     97     1.9     161     5.1   791.90   -2.97   173.30  
 343    2:30    0.000     999.000     27.6     95     2.1     135     6.6   791.80   -2.96   166.60  
 343    2:40    0.000     999.000     27.6     95     1.7     194     3.7   791.70   -2.96   166.60  
 343    2:50    0.000     999.000     27.4     97     2.1     162     5.3   791.60   -2.96   174.70  
 343    3:00    0.000     999.000     27.4     95     2.2     167     7.4   791.60   -2.96   173.30  
 343    3:10    0.000     999.000     27.5     92     2.4     135     6.3   791.60   -2.96   166.60  
 343    3:20    0.000     999.000     27.2     94     1.7     164     5.3   791.50   -2.96   174.70  
 343    3:30    0.000     999.000     27.1     93     1.7     179     6.0   791.40   -2.97   174.70  
 343    3:40    0.000     999.000     27.0     94     1.5     224     3.8   791.40   -2.97   176.00  
 343    3:50    0.000     999.000     26.8     94     1.6     272     4.8   791.40   -2.97   170.60  
 343    4:00    0.000     999.000     26.7     95     1.9     264     5.8   791.40   -2.97   169.30  
 343    4:10    0.000     999.000     26.4     96     0.4     271     2.0   791.40   -2.97   174.70  
 343    4:20    0.000     999.000     25.7     97     0.4      55     1.8   791.40   -2.96   176.00  
 343    4:30    0.000     999.000     25.0     98     0.2      46     1.4   791.40   -2.97   170.60  
 343    4:40    0.000     999.000     24.9     99     0.6      94     1.5   791.30   -2.96   174.70  
 343    4:50    0.000     999.000     24.6     98     0.2     172     2.2   791.20   -2.96   174.70  
 343    5:00    0.000     999.000     24.4     99     0.6      66     3.0   791.30   -2.97   176.00  
 343    5:10    0.000     999.000     24.2     98     1.4     115     2.8   791.30   -2.96   174.70  
 343    5:20    0.000     999.000     23.9     98     0.5     189     2.2   791.40   -2.96   174.70  
 343    5:30    0.000     999.000     23.6     98     1.4     119     2.9   791.40   -2.97   169.30  
 343    5:40    0.000     999.000     23.6     99     1.6     109     2.2   791.60   -2.96   176.00  
 343    5:50    0.000     999.000     23.5     99     0.9      45     2.1   791.70   -2.96   176.00  
 343    6:00    0.000     999.000     23.0     98     1.2      68     3.3   791.70   -2.96   174.70  
 343    6:10    0.000     999.000     22.8     98     0.9     332     2.5   791.50   -2.97   173.30  
 343    6:20    0.000     999.000     22.7     98     1.0      48     2.9   791.60   -2.96   176.00  
 343    6:30    0.000     999.000     22.6     98     1.5      38     2.7   791.50   -2.96   176.00  
 343    6:40    0.000     999.000     22.6     98     0.4      17     1.7   791.60   -2.96   176.00  
 343    6:50    0.000     999.000     22.6     98     0.7      72     2.0   791.80   -2.97   176.00  
 343    7:00    0.000     999.000     22.6     98     1.9      34     3.5   792.00   -2.97   170.60  
 343    7:10    0.000     999.000     22.8     98     1.6      20     4.4   792.10   -2.96   174.70  
 343    7:20    0.000     999.000     22.7     97     1.4      20     3.3   792.10   -2.96   176.00  
 343    7:30    0.001     999.000     22.6     98     1.8      26     3.1   792.20   -2.96   176.00  
 343    7:40    0.001     999.000     22.6     98     1.5      23     3.4   792.20   -2.96   176.00  
 343    7:50    0.001     999.000     22.6     98     1.0      19     2.4   792.20   -2.97   176.00  
 343    8:00    0.001     999.000     22.4     97     1.9      21     3.5   792.30   -2.96   174.70  
 343    8:10    0.001     999.000     22.4     97     2.0      24     3.3   792.40   -2.97   176.00  
 343    8:20    0.002     999.000     22.3     97     0.8      23     1.9   792.40   -2.96   176.00  
 343    8:30    0.002     999.000     22.3     96     1.1      23     2.1   792.40   -2.96   176.00  
 343    8:40    0.002     999.000     22.4     95     1.1      23     1.7   792.60   -2.96   176.00  
 343    8:50    0.003     999.000     22.6     96     1.0      23     2.4   792.70   -2.96   176.00  
 343    9:00    0.003     999.000     23.2     97     1.2      23     1.9   792.80   -2.97   176.00  
 343    9:10    0.009     999.000     24.1     94     0.7      23     1.8   793.00   -2.96   176.00  
 343    9:20    0.021     999.000     25.4     91     0.1      23     1.4   793.10   -2.96   176.00  
 343    9:30    0.022     999.000     26.9     90     0.0       0     0.0   793.20   -2.97   176.00  
 343    9:40    0.020     999.000     28.0     87     0.0       0     0.0   793.20   -2.96   174.60  
 343    9:50    0.023     999.000     29.5     86     0.0       0     0.0   793.10   -2.96   174.60  
 343   10:00    0.023     999.000     30.4     84     0.0       0     0.0   793.20   -2.96   171.80  
 343   10:10    0.024     999.000     31.6     83     0.0       0     0.0   793.20   -2.96   162.20  
 343   10:20    0.025     999.000     32.5     82     0.0       0     0.0   793.30   -2.96   166.20  
 343   10:30    0.025     999.000     34.1     81     0.0       0     0.0   793.30   -2.96   125.30  
 343   10:40    0.026     999.000     34.7     79     0.0       0     0.0   793.20   -2.96   122.40  
 343   10:50    0.027     999.000     35.9     79     0.0       0     0.0   793.10   -2.96   59.10  
 343   11:00    0.028     999.000     39.0     75     0.0       0     0.0   793.10   -2.96   121.60  
 343   11:10    0.028     999.000     40.4     70     0.3     306     1.5   793.10   -2.96   37.50  
 343   11:20    0.029     999.000     40.4     69     0.0       0     0.0   793.10   -2.96   27.50  
 343   11:30    0.029     999.000     42.0     68     0.0     322     0.9   793.10   -2.96   60.20  
 343   11:40    0.032     999.000     42.7     65     0.0       0     0.0   793.00   -2.96   53.20  
 343   11:50    0.033     999.000     42.8     66     0.2     326     1.4   793.00   -2.96   78.80  
 343   12:00    0.032     999.000     45.0     62     0.1     230     1.7   792.90   -2.96   91.50  
 343   12:10    0.031     999.000     45.5     58     0.7     305     1.8   792.90   -2.96   75.70  
 343   12:20    0.030     999.000     41.9     65     0.9     307     1.9   792.90   -2.96   70.00  
 343   12:30    0.031     999.000     42.5     64     0.2     317     1.8   792.80   -2.96   34.00  
 343   12:40    0.030     999.000     45.9     58     0.5     205     2.2   792.80   -2.96   25.80  
 343   12:50    0.031     999.000     46.7     58     0.3     304     1.8   792.80   -2.96   25.70  
 343   13:00    0.032     999.000     44.7     61     0.5     260     2.3   792.70   -2.96   26.40  
 343   13:10    0.033     999.000     46.4     54     0.8     206     2.2   792.70   -2.96   27.20  
 343   13:20    0.034     999.000     47.1     54     0.0     222     1.1   792.70   -2.96   26.70  
 343   13:30    0.033     999.000     48.4     53     0.2     195     1.5   792.70   -2.96   26.60  
 343   13:40    0.032     999.000     48.5     46     0.2     176     1.8   792.50   -2.96   25.60  
 343   13:50    0.031     999.000     46.1     57     0.4     314     1.9   792.50   -2.96   51.70  
 343   14:00    0.024     999.000     42.7     66     0.0     346     0.8   792.60   -2.96   164.70  
 343   14:10    0.022     999.000     41.8     68     0.7     343     1.9   792.60   -2.96   164.70  
 343   14:20    0.023     999.000     41.0     71     0.6      31     1.9   792.60   -2.96   164.90  
 343   14:30    0.010     999.000     39.7     77     0.3     337     1.3   792.60   -2.96   164.90  
 343   14:40    0.008     999.000     38.6     80     0.9     305     2.2   792.60   -2.96   164.90  
 343   14:50    0.005     999.000     37.0     84     1.2      24     4.1   792.70   -2.96   164.90  

Return to Central Sierra Snow Lab graphs page.


Western Regional Climate Center,wrcc@dri.edu